sensor_id;sensor_type;location;lat;lon;timestamp;P1;durP1;ratioP1;P2;durP2;ratioP2
46589;SDS011;32313;48.722;9.362;2022-08-21T00:00:33;11.93;;;10.83;;
46589;SDS011;32313;48.722;9.362;2022-08-21T00:03:00;13.00;;;10.57;;
46589;SDS011;32313;48.722;9.362;2022-08-21T00:05:29;10.50;;;9.47;;
46589;SDS011;32313;48.722;9.362;2022-08-21T00:07:56;12.30;;;10.10;;
46589;SDS011;32313;48.722;9.362;2022-08-21T00:10:23;10.00;;;9.00;;
46589;SDS011;32313;48.722;9.362;2022-08-21T00:12:49;15.20;;;10.63;;
46589;SDS011;32313;48.722;9.362;2022-08-21T00:15:18;10.33;;;9.37;;
46589;SDS011;32313;48.722;9.362;2022-08-21T00:17:52;10.20;;;9.30;;
46589;SDS011;32313;48.722;9.362;2022-08-21T00:20:18;12.97;;;10.70;;
46589;SDS011;32313;48.722;9.362;2022-08-21T00:22:45;15.47;;;10.67;;
46589;SDS011;32313;48.722;9.362;2022-08-21T00:25:12;10.63;;;9.30;;
46589;SDS011;32313;48.722;9.362;2022-08-21T00:27:38;12.00;;;10.70;;
46589;SDS011;32313;48.722;9.362;2022-08-21T00:30:07;16.00;;;10.70;;
46589;SDS011;32313;48.722;9.362;2022-08-21T00:32:33;10.83;;;9.73;;
46589;SDS011;32313;48.722;9.362;2022-08-21T00:35:01;10.97;;;9.90;;
46589;SDS011;32313;48.722;9.362;2022-08-21T00:37:27;11.70;;;10.60;;
46589;SDS011;32313;48.722;9.362;2022-08-21T00:39:53;12.23;;;10.93;;
46589;SDS011;32313;48.722;9.362;2022-08-21T00:42:19;11.33;;;10.23;;
46589;SDS011;32313;48.722;9.362;2022-08-21T00:44:46;11.37;;;10.37;;
46589;SDS011;32313;48.722;9.362;2022-08-21T00:47:13;11.43;;;10.33;;
46589;SDS011;32313;48.722;9.362;2022-08-21T00:49:39;11.63;;;9.87;;
46589;SDS011;32313;48.722;9.362;2022-08-21T00:52:06;11.17;;;10.10;;
46589;SDS011;32313;48.722;9.362;2022-08-21T00:54:34;11.27;;;10.00;;
46589;SDS011;32313;48.722;9.362;2022-08-21T00:57:07;12.30;;;10.93;;
46589;SDS011;32313;48.722;9.362;2022-08-21T00:59:38;11.13;;;10.13;;
46589;SDS011;32313;48.722;9.362;2022-08-21T01:02:05;11.00;;;9.87;;
46589;SDS011;32313;48.722;9.362;2022-08-21T01:04:33;9.37;;;8.43;;
46589;SDS011;32313;48.722;9.362;2022-08-21T01:06:59;12.00;;;10.80;;
46589;SDS011;32313;48.722;9.362;2022-08-21T01:09:25;11.37;;;9.97;;
46589;SDS011;32313;48.722;9.362;2022-08-21T01:11:50;11.23;;;10.07;;
46589;SDS011;32313;48.722;9.362;2022-08-21T01:14:16;10.33;;;9.53;;
46589;SDS011;32313;48.722;9.362;2022-08-21T01:16:45;11.30;;;10.20;;
46589;SDS011;32313;48.722;9.362;2022-08-21T01:19:13;13.33;;;10.80;;
46589;SDS011;32313;48.722;9.362;2022-08-21T01:21:40;11.73;;;10.33;;
46589;SDS011;32313;48.722;9.362;2022-08-21T01:24:05;12.30;;;11.07;;
46589;SDS011;32313;48.722;9.362;2022-08-21T01:26:32;14.27;;;12.07;;
46589;SDS011;32313;48.722;9.362;2022-08-21T01:31:40;12.07;;;10.80;;
46589;SDS011;32313;48.722;9.362;2022-08-21T01:34:07;15.17;;;11.87;;
46589;SDS011;32313;48.722;9.362;2022-08-21T01:36:33;12.37;;;11.20;;
46589;SDS011;32313;48.722;9.362;2022-08-21T01:38:59;12.27;;;11.07;;
46589;SDS011;32313;48.722;9.362;2022-08-21T01:41:26;15.40;;;11.70;;
46589;SDS011;32313;48.722;9.362;2022-08-21T01:43:51;12.03;;;10.90;;
46589;SDS011;32313;48.722;9.362;2022-08-21T01:46:18;15.33;;;11.73;;
46589;SDS011;32313;48.722;9.362;2022-08-21T01:48:44;13.30;;;11.70;;
46589;SDS011;32313;48.722;9.362;2022-08-21T01:51:10;12.57;;;11.33;;
46589;SDS011;32313;48.722;9.362;2022-08-21T01:53:36;12.10;;;10.93;;
46589;SDS011;32313;48.722;9.362;2022-08-21T01:56:04;14.17;;;12.27;;
46589;SDS011;32313;48.722;9.362;2022-08-21T01:58:32;14.83;;;13.27;;
46589;SDS011;32313;48.722;9.362;2022-08-21T02:00:59;12.17;;;10.97;;
46589;SDS011;32313;48.722;9.362;2022-08-21T02:03:27;13.43;;;12.03;;
46589;SDS011;32313;48.722;9.362;2022-08-21T02:05:53;15.17;;;11.73;;
46589;SDS011;32313;48.722;9.362;2022-08-21T02:08:19;13.87;;;12.53;;
46589;SDS011;32313;48.722;9.362;2022-08-21T02:10:48;14.40;;;12.93;;
46589;SDS011;32313;48.722;9.362;2022-08-21T02:13:15;16.57;;;12.83;;
46589;SDS011;32313;48.722;9.362;2022-08-21T02:15:41;13.63;;;12.30;;
46589;SDS011;32313;48.722;9.362;2022-08-21T02:18:08;15.57;;;12.40;;
46589;SDS011;32313;48.722;9.362;2022-08-21T02:20:35;14.13;;;11.87;;
46589;SDS011;32313;48.722;9.362;2022-08-21T02:23:03;13.17;;;12.00;;
46589;SDS011;32313;48.722;9.362;2022-08-21T02:25:30;13.80;;;12.50;;
46589;SDS011;32313;48.722;9.362;2022-08-21T02:27:57;14.37;;;12.87;;
46589;SDS011;32313;48.722;9.362;2022-08-21T02:30:25;16.50;;;14.03;;
46589;SDS011;32313;48.722;9.362;2022-08-21T02:32:52;14.60;;;13.10;;
46589;SDS011;32313;48.722;9.362;2022-08-21T02:35:18;14.53;;;12.90;;
46589;SDS011;32313;48.722;9.362;2022-08-21T02:37:46;17.83;;;13.60;;
46589;SDS011;32313;48.722;9.362;2022-08-21T02:40:17;15.73;;;13.33;;
46589;SDS011;32313;48.722;9.362;2022-08-21T02:42:45;15.20;;;13.73;;
46589;SDS011;32313;48.722;9.362;2022-08-21T02:45:11;14.90;;;13.27;;
46589;SDS011;32313;48.722;9.362;2022-08-21T02:47:39;15.73;;;13.83;;
46589;SDS011;32313;48.722;9.362;2022-08-21T02:50:05;14.47;;;13.07;;
46589;SDS011;32313;48.722;9.362;2022-08-21T02:52:32;15.70;;;12.70;;
46589;SDS011;32313;48.722;9.362;2022-08-21T02:54:59;16.37;;;14.77;;
46589;SDS011;32313;48.722;9.362;2022-08-21T02:57:24;16.20;;;14.00;;
46589;SDS011;32313;48.722;9.362;2022-08-21T02:59:50;17.60;;;13.80;;
46589;SDS011;32313;48.722;9.362;2022-08-21T03:02:16;16.60;;;14.83;;
46589;SDS011;32313;48.722;9.362;2022-08-21T03:04:41;15.57;;;13.90;;
46589;SDS011;32313;48.722;9.362;2022-08-21T03:07:07;16.37;;;14.80;;
46589;SDS011;32313;48.722;9.362;2022-08-21T03:09:33;15.43;;;13.83;;
46589;SDS011;32313;48.722;9.362;2022-08-21T03:11:58;14.20;;;12.80;;
46589;SDS011;32313;48.722;9.362;2022-08-21T03:14:24;16.27;;;14.63;;
46589;SDS011;32313;48.722;9.362;2022-08-21T03:16:50;17.57;;;14.23;;
46589;SDS011;32313;48.722;9.362;2022-08-21T03:19:16;16.37;;;14.77;;
46589;SDS011;32313;48.722;9.362;2022-08-21T03:21:42;15.17;;;13.67;;
46589;SDS011;32313;48.722;9.362;2022-08-21T03:24:07;13.90;;;12.57;;
46589;SDS011;32313;48.722;9.362;2022-08-21T03:26:33;15.87;;;14.20;;
46589;SDS011;32313;48.722;9.362;2022-08-21T03:29:00;17.97;;;14.67;;
46589;SDS011;32313;48.722;9.362;2022-08-21T03:31:26;16.23;;;13.07;;
46589;SDS011;32313;48.722;9.362;2022-08-21T03:33:56;15.00;;;13.23;;
46589;SDS011;32313;48.722;9.362;2022-08-21T03:36:22;15.30;;;13.00;;
46589;SDS011;32313;48.722;9.362;2022-08-21T03:38:49;15.47;;;13.97;;
46589;SDS011;32313;48.722;9.362;2022-08-21T03:41:14;15.80;;;14.20;;
46589;SDS011;32313;48.722;9.362;2022-08-21T03:43:40;15.00;;;13.50;;
46589;SDS011;32313;48.722;9.362;2022-08-21T03:46:06;14.43;;;12.97;;
46589;SDS011;32313;48.722;9.362;2022-08-21T03:48:33;17.43;;;13.83;;
46589;SDS011;32313;48.722;9.362;2022-08-21T03:51:00;16.50;;;13.33;;
46589;SDS011;32313;48.722;9.362;2022-08-21T03:53:26;15.03;;;13.43;;
46589;SDS011;32313;48.722;9.362;2022-08-21T03:55:52;16.60;;;14.33;;
46589;SDS011;32313;48.722;9.362;2022-08-21T03:58:19;16.03;;;14.00;;
46589;SDS011;32313;48.722;9.362;2022-08-21T04:00:47;17.83;;;14.67;;
46589;SDS011;32313;48.722;9.362;2022-08-21T04:03:15;16.90;;;14.17;;
46589;SDS011;32313;48.722;9.362;2022-08-21T04:05:41;18.57;;;15.13;;
46589;SDS011;32313;48.722;9.362;2022-08-21T04:08:10;18.20;;;14.07;;
46589;SDS011;32313;48.722;9.362;2022-08-21T04:10:36;17.10;;;15.33;;
46589;SDS011;32313;48.722;9.362;2022-08-21T04:13:03;16.47;;;14.73;;
46589;SDS011;32313;48.722;9.362;2022-08-21T04:15:30;17.13;;;15.30;;
46589;SDS011;32313;48.722;9.362;2022-08-21T04:17:56;16.97;;;14.60;;
46589;SDS011;32313;48.722;9.362;2022-08-21T04:20:22;18.27;;;14.40;;
46589;SDS011;32313;48.722;9.362;2022-08-21T04:22:48;16.87;;;14.53;;
46589;SDS011;32313;48.722;9.362;2022-08-21T04:25:15;16.37;;;14.70;;
46589;SDS011;32313;48.722;9.362;2022-08-21T04:27:43;15.37;;;13.60;;
46589;SDS011;32313;48.722;9.362;2022-08-21T04:30:09;15.63;;;14.03;;
46589;SDS011;32313;48.722;9.362;2022-08-21T04:32:38;15.73;;;14.23;;
46589;SDS011;32313;48.722;9.362;2022-08-21T04:35:09;18.70;;;14.40;;
46589;SDS011;32313;48.722;9.362;2022-08-21T04:37:36;16.23;;;14.53;;
46589;SDS011;32313;48.722;9.362;2022-08-21T04:40:02;17.13;;;15.30;;
46589;SDS011;32313;48.722;9.362;2022-08-21T04:42:30;17.27;;;14.50;;
46589;SDS011;32313;48.722;9.362;2022-08-21T04:44:56;17.90;;;14.93;;
46589;SDS011;32313;48.722;9.362;2022-08-21T04:47:22;17.47;;;15.23;;
46589;SDS011;32313;48.722;9.362;2022-08-21T04:49:49;15.30;;;13.80;;
46589;SDS011;32313;48.722;9.362;2022-08-21T04:52:17;16.40;;;14.53;;
46589;SDS011;32313;48.722;9.362;2022-08-21T04:54:46;14.97;;;13.57;;
46589;SDS011;32313;48.722;9.362;2022-08-21T04:57:13;15.67;;;13.97;;
46589;SDS011;32313;48.722;9.362;2022-08-21T04:59:42;14.00;;;12.70;;
46589;SDS011;32313;48.722;9.362;2022-08-21T05:02:12;17.23;;;15.53;;
46589;SDS011;32313;48.722;9.362;2022-08-21T05:04:40;17.43;;;14.53;;
46589;SDS011;32313;48.722;9.362;2022-08-21T05:07:12;17.47;;;15.60;;
46589;SDS011;32313;48.722;9.362;2022-08-21T05:09:42;17.17;;;15.37;;
46589;SDS011;32313;48.722;9.362;2022-08-21T05:12:08;16.70;;;14.27;;
46589;SDS011;32313;48.722;9.362;2022-08-21T05:14:35;17.33;;;15.53;;
46589;SDS011;32313;48.722;9.362;2022-08-21T05:17:01;16.43;;;14.90;;
46589;SDS011;32313;48.722;9.362;2022-08-21T05:19:27;16.43;;;14.60;;
46589;SDS011;32313;48.722;9.362;2022-08-21T05:21:53;16.13;;;14.43;;
46589;SDS011;32313;48.722;9.362;2022-08-21T05:24:19;16.17;;;14.37;;
46589;SDS011;32313;48.722;9.362;2022-08-21T05:26:44;15.10;;;13.80;;
46589;SDS011;32313;48.722;9.362;2022-08-21T05:29:11;16.50;;;14.90;;
46589;SDS011;32313;48.722;9.362;2022-08-21T05:31:37;16.27;;;14.57;;
46589;SDS011;32313;48.722;9.362;2022-08-21T05:34:03;16.10;;;14.40;;
46589;SDS011;32313;48.722;9.362;2022-08-21T05:36:29;15.07;;;13.57;;
46589;SDS011;32313;48.722;9.362;2022-08-21T05:38:55;15.57;;;13.97;;
46589;SDS011;32313;48.722;9.362;2022-08-21T05:41:21;15.17;;;13.33;;
46589;SDS011;32313;48.722;9.362;2022-08-21T05:43:47;16.00;;;14.33;;
46589;SDS011;32313;48.722;9.362;2022-08-21T05:46:13;14.53;;;13.13;;
46589;SDS011;32313;48.722;9.362;2022-08-21T05:48:39;15.07;;;13.63;;
46589;SDS011;32313;48.722;9.362;2022-08-21T05:51:06;17.43;;;14.33;;
46589;SDS011;32313;48.722;9.362;2022-08-21T05:53:36;15.80;;;14.40;;
46589;SDS011;32313;48.722;9.362;2022-08-21T05:56:03;16.03;;;14.43;;
46589;SDS011;32313;48.722;9.362;2022-08-21T05:58:30;14.80;;;13.27;;
46589;SDS011;32313;48.722;9.362;2022-08-21T06:00:58;14.77;;;13.37;;
46589;SDS011;32313;48.722;9.362;2022-08-21T06:03:34;15.13;;;13.83;;
46589;SDS011;32313;48.722;9.362;2022-08-21T06:06:02;14.73;;;13.33;;
46589;SDS011;32313;48.722;9.362;2022-08-21T06:08:28;13.33;;;12.13;;
46589;SDS011;32313;48.722;9.362;2022-08-21T06:10:55;14.07;;;12.77;;
46589;SDS011;32313;48.722;9.362;2022-08-21T06:13:22;13.40;;;12.13;;
46589;SDS011;32313;48.722;9.362;2022-08-21T06:15:48;12.60;;;11.50;;
46589;SDS011;32313;48.722;9.362;2022-08-21T06:18:15;13.30;;;11.97;;
46589;SDS011;32313;48.722;9.362;2022-08-21T06:20:41;13.40;;;12.07;;
46589;SDS011;32313;48.722;9.362;2022-08-21T06:23:07;13.17;;;12.03;;
46589;SDS011;32313;48.722;9.362;2022-08-21T06:25:33;12.63;;;11.43;;
46589;SDS011;32313;48.722;9.362;2022-08-21T06:28:00;12.73;;;11.53;;
46589;SDS011;32313;48.722;9.362;2022-08-21T06:30:35;11.80;;;10.90;;
46589;SDS011;32313;48.722;9.362;2022-08-21T06:33:02;11.60;;;10.60;;
46589;SDS011;32313;48.722;9.362;2022-08-21T06:35:28;13.63;;;12.20;;
46589;SDS011;32313;48.722;9.362;2022-08-21T06:37:55;12.10;;;10.87;;
46589;SDS011;32313;48.722;9.362;2022-08-21T06:40:25;11.00;;;10.07;;
46589;SDS011;32313;48.722;9.362;2022-08-21T06:42:51;21.47;;;11.57;;
46589;SDS011;32313;48.722;9.362;2022-08-21T06:45:17;28.97;;;10.57;;
46589;SDS011;32313;48.722;9.362;2022-08-21T06:47:43;371.07;;;41.23;;
46589;SDS011;32313;48.722;9.362;2022-08-21T06:50:08;29.33;;;12.87;;
46589;SDS011;32313;48.722;9.362;2022-08-21T06:52:35;10.13;;;9.00;;
46589;SDS011;32313;48.722;9.362;2022-08-21T06:55:02;9.87;;;7.83;;
46589;SDS011;32313;48.722;9.362;2022-08-21T06:57:30;8.15;;;7.45;;
46589;SDS011;32313;48.722;9.362;2022-08-21T06:59:56;20.13;;;7.37;;
46589;SDS011;32313;48.722;9.362;2022-08-21T07:02:22;7.47;;;5.87;;
46589;SDS011;32313;48.722;9.362;2022-08-21T07:04:47;5.60;;;5.07;;
46589;SDS011;32313;48.722;9.362;2022-08-21T07:07:13;5.33;;;4.83;;
46589;SDS011;32313;48.722;9.362;2022-08-21T07:09:39;4.93;;;4.50;;
46589;SDS011;32313;48.722;9.362;2022-08-21T07:12:05;5.67;;;4.70;;
46589;SDS011;32313;48.722;9.362;2022-08-21T07:14:32;10.17;;;4.70;;
46589;SDS011;32313;48.722;9.362;2022-08-21T07:16:58;5.80;;;3.90;;
46589;SDS011;32313;48.722;9.362;2022-08-21T07:19:23;4.20;;;3.57;;
46589;SDS011;32313;48.722;9.362;2022-08-21T07:21:49;7.90;;;3.80;;
46589;SDS011;32313;48.722;9.362;2022-08-21T07:24:15;4.27;;;3.30;;
46589;SDS011;32313;48.722;9.362;2022-08-21T07:26:41;3.97;;;3.47;;
46589;SDS011;32313;48.722;9.362;2022-08-21T07:29:07;3.80;;;3.10;;
46589;SDS011;32313;48.722;9.362;2022-08-21T07:31:32;4.77;;;3.57;;
46589;SDS011;32313;48.722;9.362;2022-08-21T07:33:58;4.33;;;3.43;;
46589;SDS011;32313;48.722;9.362;2022-08-21T07:36:24;3.53;;;3.13;;
46589;SDS011;32313;48.722;9.362;2022-08-21T07:38:49;5.23;;;3.60;;
46589;SDS011;32313;48.722;9.362;2022-08-21T07:41:16;3.90;;;2.90;;
46589;SDS011;32313;48.722;9.362;2022-08-21T07:43:45;4.33;;;3.00;;
46589;SDS011;32313;48.722;9.362;2022-08-21T07:46:11;5.10;;;3.40;;
46589;SDS011;32313;48.722;9.362;2022-08-21T07:48:37;4.60;;;3.40;;
46589;SDS011;32313;48.722;9.362;2022-08-21T07:51:06;4.13;;;3.40;;
46589;SDS011;32313;48.722;9.362;2022-08-21T07:53:33;3.87;;;3.00;;
46589;SDS011;32313;48.722;9.362;2022-08-21T07:56:00;3.37;;;3.07;;
46589;SDS011;32313;48.722;9.362;2022-08-21T07:58:26;5.13;;;2.90;;
46589;SDS011;32313;48.722;9.362;2022-08-21T08:00:52;4.47;;;3.30;;
46589;SDS011;32313;48.722;9.362;2022-08-21T08:03:18;3.17;;;2.70;;
46589;SDS011;32313;48.722;9.362;2022-08-21T08:05:43;3.73;;;2.67;;
46589;SDS011;32313;48.722;9.362;2022-08-21T08:08:09;4.30;;;3.00;;
46589;SDS011;32313;48.722;9.362;2022-08-21T08:10:35;4.47;;;2.90;;
46589;SDS011;32313;48.722;9.362;2022-08-21T08:13:03;6.47;;;2.83;;
46589;SDS011;32313;48.722;9.362;2022-08-21T08:15:29;4.63;;;2.90;;
46589;SDS011;32313;48.722;9.362;2022-08-21T08:17:55;4.63;;;3.00;;
46589;SDS011;32313;48.722;9.362;2022-08-21T08:20:22;3.90;;;3.07;;
46589;SDS011;32313;48.722;9.362;2022-08-21T08:22:50;3.70;;;3.03;;
46589;SDS011;32313;48.722;9.362;2022-08-21T08:25:17;4.20;;;2.80;;
46589;SDS011;32313;48.722;9.362;2022-08-21T08:27:43;6.50;;;3.40;;
46589;SDS011;32313;48.722;9.362;2022-08-21T08:30:10;5.57;;;2.70;;
46589;SDS011;32313;48.722;9.362;2022-08-21T08:32:37;5.67;;;3.20;;
46589;SDS011;32313;48.722;9.362;2022-08-21T08:35:04;3.70;;;2.93;;
46589;SDS011;32313;48.722;9.362;2022-08-21T08:37:31;6.00;;;3.42;;
46589;SDS011;32313;48.722;9.362;2022-08-21T08:39:58;6.18;;;2.92;;
46589;SDS011;32313;48.722;9.362;2022-08-21T08:42:29;6.93;;;3.40;;
46589;SDS011;32313;48.722;9.362;2022-08-21T08:45:11;6.07;;;3.00;;
46589;SDS011;32313;48.722;9.362;2022-08-21T08:47:51;7.30;;;3.58;;
46589;SDS011;32313;48.722;9.362;2022-08-21T08:51:06;6.57;;;3.75;;
46589;SDS011;32313;48.722;9.362;2022-08-21T08:53:15;5.63;;;3.13;;
46589;SDS011;32313;48.722;9.362;2022-08-21T08:55:47;4.32;;;3.00;;
46589;SDS011;32313;48.722;9.362;2022-08-21T08:58:29;5.65;;;2.97;;
46589;SDS011;32313;48.722;9.362;2022-08-21T09:01:02;4.63;;;3.30;;
46589;SDS011;32313;48.722;9.362;2022-08-21T09:03:34;5.50;;;3.10;;
46589;SDS011;32313;48.722;9.362;2022-08-21T09:06:04;6.43;;;3.58;;
46589;SDS011;32313;48.722;9.362;2022-08-21T09:12:01;6.10;;;3.17;;
46589;SDS011;32313;48.722;9.362;2022-08-21T09:17:34;4.20;;;3.20;;
46589;SDS011;32313;48.722;9.362;2022-08-21T09:25:42;4.25;;;3.28;;
46589;SDS011;32313;48.722;9.362;2022-08-21T09:28:20;6.35;;;3.60;;
46589;SDS011;32313;48.722;9.362;2022-08-21T09:30:46;5.40;;;3.53;;
46589;SDS011;32313;48.722;9.362;2022-08-21T09:33:12;6.07;;;3.05;;
46589;SDS011;32313;48.722;9.362;2022-08-21T09:35:47;6.55;;;3.45;;
46589;SDS011;32313;48.722;9.362;2022-08-21T09:38:52;4.03;;;2.95;;
46589;SDS011;32313;48.722;9.362;2022-08-21T09:41:16;3.63;;;2.65;;
46589;SDS011;32313;48.722;9.362;2022-08-21T09:43:54;4.10;;;3.13;;
46589;SDS011;32313;48.722;9.362;2022-08-21T09:46:21;3.55;;;2.78;;
46589;SDS011;32313;48.722;9.362;2022-08-21T09:48:50;4.43;;;2.80;;
46589;SDS011;32313;48.722;9.362;2022-08-21T09:51:19;5.38;;;3.13;;
46589;SDS011;32313;48.722;9.362;2022-08-21T09:53:51;4.00;;;3.17;;
46589;SDS011;32313;48.722;9.362;2022-08-21T09:56:31;4.63;;;3.30;;
46589;SDS011;32313;48.722;9.362;2022-08-21T09:59:42;5.57;;;3.30;;
46589;SDS011;32313;48.722;9.362;2022-08-21T10:02:23;4.15;;;2.97;;
46589;SDS011;32313;48.722;9.362;2022-08-21T10:04:49;4.00;;;2.55;;
46589;SDS011;32313;48.722;9.362;2022-08-21T10:07:21;5.15;;;2.85;;
46589;SDS011;32313;48.722;9.362;2022-08-21T10:10:02;4.43;;;2.97;;
46589;SDS011;32313;48.722;9.362;2022-08-21T10:12:33;4.45;;;2.45;;
46589;SDS011;32313;48.722;9.362;2022-08-21T10:26:17;5.60;;;2.85;;
46589;SDS011;32313;48.722;9.362;2022-08-21T10:32:34;5.30;;;3.20;;
46589;SDS011;32313;48.722;9.362;2022-08-21T10:48:50;3.72;;;2.47;;
46589;SDS011;32313;48.722;9.362;2022-08-21T10:51:34;5.70;;;2.60;;
46589;SDS011;32313;48.722;9.362;2022-08-21T10:56:42;3.75;;;2.50;;
46589;SDS011;32313;48.722;9.362;2022-08-21T10:59:25;4.75;;;2.53;;
46589;SDS011;32313;48.722;9.362;2022-08-21T11:07:07;6.00;;;2.90;;
46589;SDS011;32313;48.722;9.362;2022-08-21T11:09:54;4.43;;;2.63;;
46589;SDS011;32313;48.722;9.362;2022-08-21T11:12:27;4.85;;;2.88;;
46589;SDS011;32313;48.722;9.362;2022-08-21T11:18:20;5.70;;;2.80;;
46589;SDS011;32313;48.722;9.362;2022-08-21T11:30:04;6.47;;;3.08;;
46589;SDS011;32313;48.722;9.362;2022-08-21T11:52:31;5.00;;;3.40;;
46589;SDS011;32313;48.722;9.362;2022-08-21T11:55:12;4.70;;;2.97;;
46589;SDS011;32313;48.722;9.362;2022-08-21T12:00:27;3.50;;;2.88;;
46589;SDS011;32313;48.722;9.362;2022-08-21T12:02:58;4.35;;;3.05;;
46589;SDS011;32313;48.722;9.362;2022-08-21T12:05:35;4.53;;;2.70;;
46589;SDS011;32313;48.722;9.362;2022-08-21T12:08:11;6.18;;;2.80;;
46589;SDS011;32313;48.722;9.362;2022-08-21T12:10:41;5.95;;;3.13;;
46589;SDS011;32313;48.722;9.362;2022-08-21T12:13:22;3.78;;;2.50;;
46589;SDS011;32313;48.722;9.362;2022-08-21T12:16:13;4.32;;;2.90;;
46589;SDS011;32313;48.722;9.362;2022-08-21T12:19:02;4.05;;;2.45;;
46589;SDS011;32313;48.722;9.362;2022-08-21T12:21:29;3.35;;;2.90;;
46589;SDS011;32313;48.722;9.362;2022-08-21T12:29:22;4.90;;;2.60;;
46589;SDS011;32313;48.722;9.362;2022-08-21T12:34:19;3.35;;;2.55;;
46589;SDS011;32313;48.722;9.362;2022-08-21T12:36:55;4.57;;;2.63;;
46589;SDS011;32313;48.722;9.362;2022-08-21T12:39:26;4.25;;;2.63;;
46589;SDS011;32313;48.722;9.362;2022-08-21T12:42:11;5.43;;;2.67;;
46589;SDS011;32313;48.722;9.362;2022-08-21T12:45:04;4.93;;;2.60;;
46589;SDS011;32313;48.722;9.362;2022-08-21T12:47:51;3.92;;;2.60;;
46589;SDS011;32313;48.722;9.362;2022-08-21T12:53:42;4.57;;;2.60;;
46589;SDS011;32313;48.722;9.362;2022-08-21T12:56:15;5.22;;;2.25;;
46589;SDS011;32313;48.722;9.362;2022-08-21T12:58:47;3.85;;;2.50;;
46589;SDS011;32313;48.722;9.362;2022-08-21T13:04:09;2.75;;;2.42;;
46589;SDS011;32313;48.722;9.362;2022-08-21T13:06:39;3.28;;;2.30;;
46589;SDS011;32313;48.722;9.362;2022-08-21T13:09:09;3.25;;;2.30;;
46589;SDS011;32313;48.722;9.362;2022-08-21T13:11:39;3.20;;;2.10;;
46589;SDS011;32313;48.722;9.362;2022-08-21T13:14:13;3.47;;;2.30;;
46589;SDS011;32313;48.722;9.362;2022-08-21T13:17:00;3.67;;;2.13;;
46589;SDS011;32313;48.722;9.362;2022-08-21T13:19:29;3.33;;;2.38;;
46589;SDS011;32313;48.722;9.362;2022-08-21T13:21:56;2.22;;;2.00;;
46589;SDS011;32313;48.722;9.362;2022-08-21T13:24:25;3.38;;;2.35;;
46589;SDS011;32313;48.722;9.362;2022-08-21T13:26:53;2.20;;;1.95;;
46589;SDS011;32313;48.722;9.362;2022-08-21T13:29:21;2.00;;;1.80;;
46589;SDS011;32313;48.722;9.362;2022-08-21T13:31:56;1.75;;;1.65;;
46589;SDS011;32313;48.722;9.362;2022-08-21T13:34:26;1.75;;;1.65;;
46589;SDS011;32313;48.722;9.362;2022-08-21T13:36:59;2.47;;;1.63;;
46589;SDS011;32313;48.722;9.362;2022-08-21T13:39:28;2.30;;;1.90;;
46589;SDS011;32313;48.722;9.362;2022-08-21T13:41:55;3.45;;;2.00;;
46589;SDS011;32313;48.722;9.362;2022-08-21T13:46:56;2.70;;;2.13;;
46589;SDS011;32313;48.722;9.362;2022-08-21T13:49:27;2.83;;;2.22;;
46589;SDS011;32313;48.722;9.362;2022-08-21T13:51:56;2.40;;;1.85;;
46589;SDS011;32313;48.722;9.362;2022-08-21T13:54:26;2.15;;;1.95;;
46589;SDS011;32313;48.722;9.362;2022-08-21T13:57:02;2.00;;;1.80;;
46589;SDS011;32313;48.722;9.362;2022-08-21T13:59:30;2.20;;;2.00;;
46589;SDS011;32313;48.722;9.362;2022-08-21T14:02:01;2.80;;;1.77;;
46589;SDS011;32313;48.722;9.362;2022-08-21T14:09:52;2.53;;;1.90;;
46589;SDS011;32313;48.722;9.362;2022-08-21T14:12:24;3.28;;;2.10;;
46589;SDS011;32313;48.722;9.362;2022-08-21T14:14:53;2.33;;;2.03;;
46589;SDS011;32313;48.722;9.362;2022-08-21T14:17:34;2.25;;;2.05;;
46589;SDS011;32313;48.722;9.362;2022-08-21T14:20:06;2.78;;;2.17;;
46589;SDS011;32313;48.722;9.362;2022-08-21T14:22:49;2.95;;;1.77;;
46589;SDS011;32313;48.722;9.362;2022-08-21T14:27:48;4.00;;;2.13;;
46589;SDS011;32313;48.722;9.362;2022-08-21T14:30:17;2.38;;;1.73;;
46589;SDS011;32313;48.722;9.362;2022-08-21T14:32:45;2.72;;;2.20;;
46589;SDS011;32313;48.722;9.362;2022-08-21T14:35:11;2.97;;;2.00;;
46589;SDS011;32313;48.722;9.362;2022-08-21T14:37:40;2.95;;;2.30;;
46589;SDS011;32313;48.722;9.362;2022-08-21T14:40:07;2.50;;;1.95;;
46589;SDS011;32313;48.722;9.362;2022-08-21T14:42:33;2.90;;;2.08;;
46589;SDS011;32313;48.722;9.362;2022-08-21T14:45:00;2.60;;;1.90;;
46589;SDS011;32313;48.722;9.362;2022-08-21T14:47:38;2.30;;;1.85;;
46589;SDS011;32313;48.722;9.362;2022-08-21T14:50:04;4.00;;;2.33;;
46589;SDS011;32313;48.722;9.362;2022-08-21T14:52:30;2.33;;;2.05;;
46589;SDS011;32313;48.722;9.362;2022-08-21T14:54:57;4.88;;;2.42;;
46589;SDS011;32313;48.722;9.362;2022-08-21T14:57:23;2.60;;;2.20;;
46589;SDS011;32313;48.722;9.362;2022-08-21T14:59:50;2.60;;;2.10;;
46589;SDS011;32313;48.722;9.362;2022-08-21T15:02:16;2.70;;;1.90;;
46589;SDS011;32313;48.722;9.362;2022-08-21T15:04:41;2.22;;;2.03;;
46589;SDS011;32313;48.722;9.362;2022-08-21T15:07:07;3.03;;;2.28;;
46589;SDS011;32313;48.722;9.362;2022-08-21T15:09:33;2.10;;;1.90;;
46589;SDS011;32313;48.722;9.362;2022-08-21T15:11:59;1.70;;;1.60;;
46589;SDS011;32313;48.722;9.362;2022-08-21T15:14:27;2.40;;;2.10;;
46589;SDS011;32313;48.722;9.362;2022-08-21T15:16:55;2.65;;;2.30;;
46589;SDS011;32313;48.722;9.362;2022-08-21T15:19:22;2.63;;;2.40;;
46589;SDS011;32313;48.722;9.362;2022-08-21T15:21:47;2.75;;;2.17;;
46589;SDS011;32313;48.722;9.362;2022-08-21T15:24:13;3.42;;;2.22;;
46589;SDS011;32313;48.722;9.362;2022-08-21T15:26:39;3.15;;;2.30;;
46589;SDS011;32313;48.722;9.362;2022-08-21T15:29:05;3.92;;;2.10;;
46589;SDS011;32313;48.722;9.362;2022-08-21T15:31:33;2.53;;;2.25;;
46589;SDS011;32313;48.722;9.362;2022-08-21T15:34:00;2.30;;;2.00;;
46589;SDS011;32313;48.722;9.362;2022-08-21T15:36:25;2.20;;;2.00;;
46589;SDS011;32313;48.722;9.362;2022-08-21T15:38:51;4.47;;;2.10;;
46589;SDS011;32313;48.722;9.362;2022-08-21T15:41:17;3.97;;;2.08;;
46589;SDS011;32313;48.722;9.362;2022-08-21T15:43:47;2.53;;;2.20;;
46589;SDS011;32313;48.722;9.362;2022-08-21T15:46:15;2.17;;;1.90;;
46589;SDS011;32313;48.722;9.362;2022-08-21T15:48:42;2.85;;;2.20;;
46589;SDS011;32313;48.722;9.362;2022-08-21T15:51:11;3.50;;;1.95;;
46589;SDS011;32313;48.722;9.362;2022-08-21T15:53:37;4.38;;;2.17;;
46589;SDS011;32313;48.722;9.362;2022-08-21T15:56:50;2.45;;;2.10;;
46589;SDS011;32313;48.722;9.362;2022-08-21T15:58:53;3.17;;;2.03;;
46589;SDS011;32313;48.722;9.362;2022-08-21T16:01:24;3.45;;;1.95;;
46589;SDS011;32313;48.722;9.362;2022-08-21T16:03:50;2.30;;;2.10;;
46589;SDS011;32313;48.722;9.362;2022-08-21T16:06:19;2.72;;;2.20;;
46589;SDS011;32313;48.722;9.362;2022-08-21T16:08:44;2.25;;;2.00;;
46589;SDS011;32313;48.722;9.362;2022-08-21T16:11:11;2.85;;;2.28;;
46589;SDS011;32313;48.722;9.362;2022-08-21T16:13:39;3.45;;;2.65;;
46589;SDS011;32313;48.722;9.362;2022-08-21T16:16:08;3.40;;;2.33;;
46589;SDS011;32313;48.722;9.362;2022-08-21T16:18:36;3.42;;;2.40;;
46589;SDS011;32313;48.722;9.362;2022-08-21T16:21:02;3.88;;;2.42;;
46589;SDS011;32313;48.722;9.362;2022-08-21T16:23:28;3.00;;;2.50;;
46589;SDS011;32313;48.722;9.362;2022-08-21T16:25:53;2.80;;;2.28;;
46589;SDS011;32313;48.722;9.362;2022-08-21T16:28:19;2.88;;;2.30;;
46589;SDS011;32313;48.722;9.362;2022-08-21T16:30:47;2.40;;;2.10;;
46589;SDS011;32313;48.722;9.362;2022-08-21T16:35:46;4.07;;;2.10;;
46589;SDS011;32313;48.722;9.362;2022-08-21T16:38:12;4.07;;;2.33;;